< < Back
Terminal Aerodrome Forecast


Current Version              Previous Versions:   1  2  3  4  5  6  7  8  9  

Terminal Aerodrome Forecast

083
FTUS42 KGSP 182043 AAB
TAFCLT
TAF AMD
KCLT 182043Z 1821/1918 13005KT P6SM BKN040 BKN100
      TEMPO 1821/1824 -SHRA BKN030
     FM190800 15008KT 4SM -SHRA BR OVC008
     FM191400 16012G20KT 2SM SHRA BR OVC003 PROB30 1916/1918 4SM
      TSRA OVC008CB=

Latest METAR

103
SAUS70 KWBC 182000 RRE
MTRCLT
METAR KCLT 181952Z 17007KT 10SM SCT048 BKN080 BKN160 OVC200 24/15 A2995
RMK AO2 SLP135 T02440150


USA.gov is the U.S. government's official web portal to all federal, state and local government web resources and services.